<?xml version="1.0" encoding="utf-8"?>
<gpx xmlns:xsi="http://www.w3.org/2001/XMLSchema-instance" xmlns:xsd="http://www.w3.org/2001/XMLSchema" version="1.1" creator="Shapelink.com" xmlns="http://www.topografix.com/GPX/1/1" xmlns:gpxtpx="http://www.garmin.com/xmlschemas/TrackPointExtension/v1">
  <metadata>
    <name>Cykling 8.27 km, 2013-10-12</name>
    <desc></desc>
    <author><name>Kim Kronberg</name></author> 
    <time>2013-10-12T14:38:55Z</time>
  </metadata>
  <trk>
    <name>Cykling 8.27 km, 2013-10-12</name>
    <trkseg>
      <trkpt lat="60.4877074" lon="22.2101825">
        <ele>19.3638</ele>
        <time>2013-10-12T14:38:55Z</time>
      </trkpt>
      <trkpt lat="60.4876616" lon="22.2101813">
        <ele>18.4023</ele>
        <time>2013-10-12T14:39:00Z</time>
      </trkpt>
      <trkpt lat="60.4875115" lon="22.2101664">
        <ele>17.4412</ele>
        <time>2013-10-12T14:39:03Z</time>
      </trkpt>
      <trkpt lat="60.4874271" lon="22.2099075">
        <ele>16.9604</ele>
        <time>2013-10-12T14:39:07Z</time>
      </trkpt>
      <trkpt lat="60.4873189" lon="22.2091957">
        <ele>16.9604</ele>
        <time>2013-10-12T14:39:14Z</time>
      </trkpt>
      <trkpt lat="60.4871987" lon="22.2085569">
        <ele>16.4797</ele>
        <time>2013-10-12T14:39:20Z</time>
      </trkpt>
      <trkpt lat="60.4869707" lon="22.2081099">
        <ele>15.5184</ele>
        <time>2013-10-12T14:39:26Z</time>
      </trkpt>
      <trkpt lat="60.4868051" lon="22.2081404">
        <ele>15.0377</ele>
        <time>2013-10-12T14:39:29Z</time>
      </trkpt>
      <trkpt lat="60.4862168" lon="22.2085668">
        <ele>13.5958</ele>
        <time>2013-10-12T14:39:40Z</time>
      </trkpt>
      <trkpt lat="60.4859834" lon="22.2086715">
        <ele>12.6344</ele>
        <time>2013-10-12T14:39:45Z</time>
      </trkpt>
      <trkpt lat="60.4858239" lon="22.2086454">
        <ele>11.1925</ele>
        <time>2013-10-12T14:39:49Z</time>
      </trkpt>
      <trkpt lat="60.4856574" lon="22.2087472">
        <ele>10.2312</ele>
        <time>2013-10-12T14:39:54Z</time>
      </trkpt>
      <trkpt lat="60.4854929" lon="22.2089677">
        <ele>9.75061</ele>
        <time>2013-10-12T14:39:59Z</time>
      </trkpt>
      <trkpt lat="60.4853966" lon="22.2090171">
        <ele>7.34717</ele>
        <time>2013-10-12T14:40:01Z</time>
      </trkpt>
      <trkpt lat="60.4852949" lon="22.209019">
        <ele>4.46326</ele>
        <time>2013-10-12T14:40:03Z</time>
      </trkpt>
      <trkpt lat="60.4851262" lon="22.2087907">
        <ele>4.46326</ele>
        <time>2013-10-12T14:40:07Z</time>
      </trkpt>
      <trkpt lat="60.4850758" lon="22.2083439">
        <ele>5.42456</ele>
        <time>2013-10-12T14:40:10Z</time>
      </trkpt>
      <trkpt lat="60.4850411" lon="22.2081068">
        <ele>6.86646</ele>
        <time>2013-10-12T14:40:12Z</time>
      </trkpt>
      <trkpt lat="60.484953" lon="22.2076765">
        <ele>9.2699</ele>
        <time>2013-10-12T14:40:16Z</time>
      </trkpt>
      <trkpt lat="60.4847222" lon="22.2072728">
        <ele>4.94385</ele>
        <time>2013-10-12T14:40:21Z</time>
      </trkpt>
      <trkpt lat="60.4845289" lon="22.2070972">
        <ele>6.86646</ele>
        <time>2013-10-12T14:40:25Z</time>
      </trkpt>
      <trkpt lat="60.4844532" lon="22.2070605">
        <ele>7.34717</ele>
        <time>2013-10-12T14:40:28Z</time>
      </trkpt>
      <trkpt lat="60.4843041" lon="22.2071105">
        <ele>6.38586</ele>
        <time>2013-10-12T14:40:34Z</time>
      </trkpt>
      <trkpt lat="60.4842461" lon="22.2071868">
        <ele>6.38586</ele>
        <time>2013-10-12T14:40:36Z</time>
      </trkpt>
      <trkpt lat="60.4841684" lon="22.2076176">
        <ele>5.90527</ele>
        <time>2013-10-12T14:40:41Z</time>
      </trkpt>
      <trkpt lat="60.4841558" lon="22.2077246">
        <ele>6.38586</ele>
        <time>2013-10-12T14:40:42Z</time>
      </trkpt>
      <trkpt lat="60.4840922" lon="22.2080211">
        <ele>7.82788</ele>
        <time>2013-10-12T14:40:45Z</time>
      </trkpt>
      <trkpt lat="60.4838825" lon="22.2083508">
        <ele>9.75061</ele>
        <time>2013-10-12T14:40:50Z</time>
      </trkpt>
      <trkpt lat="60.4836465" lon="22.2086336">
        <ele>10.2312</ele>
        <time>2013-10-12T14:40:55Z</time>
      </trkpt>
      <trkpt lat="60.4835529" lon="22.2087254">
        <ele>11.1925</ele>
        <time>2013-10-12T14:40:57Z</time>
      </trkpt>
      <trkpt lat="60.4834056" lon="22.2088155">
        <ele>11.1925</ele>
        <time>2013-10-12T14:41:00Z</time>
      </trkpt>
      <trkpt lat="60.4831541" lon="22.2089302">
        <ele>11.6732</ele>
        <time>2013-10-12T14:41:05Z</time>
      </trkpt>
      <trkpt lat="60.4830572" lon="22.2087953">
        <ele>14.557</ele>
        <time>2013-10-12T14:41:07Z</time>
      </trkpt>
      <trkpt lat="60.482922" lon="22.2085215">
        <ele>15.0377</ele>
        <time>2013-10-12T14:41:10Z</time>
      </trkpt>
      <trkpt lat="60.4826884" lon="22.2081356">
        <ele>15.0377</ele>
        <time>2013-10-12T14:41:15Z</time>
      </trkpt>
      <trkpt lat="60.4823744" lon="22.2073083">
        <ele>15.5184</ele>
        <time>2013-10-12T14:41:24Z</time>
      </trkpt>
      <trkpt lat="60.4821678" lon="22.2068159">
        <ele>17.4412</ele>
        <time>2013-10-12T14:41:30Z</time>
      </trkpt>
      <trkpt lat="60.4819858" lon="22.2065694">
        <ele>19.8444</ele>
        <time>2013-10-12T14:41:35Z</time>
      </trkpt>
      <trkpt lat="60.4818171" lon="22.2064476">
        <ele>22.7283</ele>
        <time>2013-10-12T14:41:40Z</time>
      </trkpt>
      <trkpt lat="60.4817301" lon="22.2064362">
        <ele>22.2476</ele>
        <time>2013-10-12T14:41:42Z</time>
      </trkpt>
      <trkpt lat="60.4815197" lon="22.2062689">
        <ele>19.3638</ele>
        <time>2013-10-12T14:41:48Z</time>
      </trkpt>
      <trkpt lat="60.4814405" lon="22.2061749">
        <ele>18.4023</ele>
        <time>2013-10-12T14:41:50Z</time>
      </trkpt>
      <trkpt lat="60.4813135" lon="22.2060382">
        <ele>17.9218</ele>
        <time>2013-10-12T14:41:53Z</time>
      </trkpt>
      <trkpt lat="60.4811877" lon="22.2058979">
        <ele>17.4412</ele>
        <time>2013-10-12T14:41:56Z</time>
      </trkpt>
      <trkpt lat="60.4809728" lon="22.2055917">
        <ele>17.9218</ele>
        <time>2013-10-12T14:42:01Z</time>
      </trkpt>
      <trkpt lat="60.4808562" lon="22.2053927">
        <ele>16.4797</ele>
        <time>2013-10-12T14:42:04Z</time>
      </trkpt>
      <trkpt lat="60.4806614" lon="22.2051816">
        <ele>14.0764</ele>
        <time>2013-10-12T14:42:09Z</time>
      </trkpt>
      <trkpt lat="60.4804669" lon="22.2052442">
        <ele>14.557</ele>
        <time>2013-10-12T14:42:13Z</time>
      </trkpt>
      <trkpt lat="60.4802123" lon="22.205414">
        <ele>15.5184</ele>
        <time>2013-10-12T14:42:18Z</time>
      </trkpt>
      <trkpt lat="60.4800075" lon="22.2055955">
        <ele>16.4797</ele>
        <time>2013-10-12T14:42:22Z</time>
      </trkpt>
      <trkpt lat="60.4798155" lon="22.2057846">
        <ele>16.9604</ele>
        <time>2013-10-12T14:42:26Z</time>
      </trkpt>
      <trkpt lat="60.4796342" lon="22.2059162">
        <ele>18.4023</ele>
        <time>2013-10-12T14:42:30Z</time>
      </trkpt>
      <trkpt lat="60.4795524" lon="22.2061902">
        <ele>17.9218</ele>
        <time>2013-10-12T14:42:34Z</time>
      </trkpt>
      <trkpt lat="60.4795368" lon="22.206686">
        <ele>16.9604</ele>
        <time>2013-10-12T14:42:38Z</time>
      </trkpt>
      <trkpt lat="60.4795625" lon="22.2071476">
        <ele>17.4412</ele>
        <time>2013-10-12T14:42:42Z</time>
      </trkpt>
      <trkpt lat="60.4795668" lon="22.2075415">
        <ele>17.4412</ele>
        <time>2013-10-12T14:42:46Z</time>
      </trkpt>
      <trkpt lat="60.4795523" lon="22.207725">
        <ele>17.4412</ele>
        <time>2013-10-12T14:42:48Z</time>
      </trkpt>
      <trkpt lat="60.4794736" lon="22.2081023">
        <ele>17.9218</ele>
        <time>2013-10-12T14:42:53Z</time>
      </trkpt>
      <trkpt lat="60.4794143" lon="22.2085021">
        <ele>17.4412</ele>
        <time>2013-10-12T14:42:58Z</time>
      </trkpt>
      <trkpt lat="60.4793922" lon="22.2090549">
        <ele>16.9604</ele>
        <time>2013-10-12T14:43:03Z</time>
      </trkpt>
      <trkpt lat="60.479304" lon="22.2096425">
        <ele>16.9604</ele>
        <time>2013-10-12T14:43:09Z</time>
      </trkpt>
      <trkpt lat="60.4792387" lon="22.2100794">
        <ele>16.4797</ele>
        <time>2013-10-12T14:43:15Z</time>
      </trkpt>
      <trkpt lat="60.479198" lon="22.2106497">
        <ele>19.8444</ele>
        <time>2013-10-12T14:43:23Z</time>
      </trkpt>
      <trkpt lat="60.4792273" lon="22.2109118">
        <ele>21.2864</ele>
        <time>2013-10-12T14:43:28Z</time>
      </trkpt>
      <trkpt lat="60.4793074" lon="22.2111097">
        <ele>24.1703</ele>
        <time>2013-10-12T14:43:34Z</time>
      </trkpt>
      <trkpt lat="60.4794296" lon="22.2113888">
        <ele>27.5349</ele>
        <time>2013-10-12T14:43:41Z</time>
      </trkpt>
      <trkpt lat="60.4796103" lon="22.2116677">
        <ele>30.4188</ele>
        <time>2013-10-12T14:43:47Z</time>
      </trkpt>
      <trkpt lat="60.4797377" lon="22.211909">
        <ele>32.8223</ele>
        <time>2013-10-12T14:43:50Z</time>
      </trkpt>
      <trkpt lat="60.479942" lon="22.2123331">
        <ele>33.7834</ele>
        <time>2013-10-12T14:43:55Z</time>
      </trkpt>
      <trkpt lat="60.4802568" lon="22.2124269">
        <ele>36.1868</ele>
        <time>2013-10-12T14:44:01Z</time>
      </trkpt>
      <trkpt lat="60.4803454" lon="22.2124327">
        <ele>37.1481</ele>
        <time>2013-10-12T14:44:03Z</time>
      </trkpt>
      <trkpt lat="60.4806007" lon="22.2123985">
        <ele>39.0707</ele>
        <time>2013-10-12T14:44:08Z</time>
      </trkpt>
      <trkpt lat="60.4807824" lon="22.2125105">
        <ele>43.3966</ele>
        <time>2013-10-12T14:44:12Z</time>
      </trkpt>
      <trkpt lat="60.4811214" lon="22.2127637">
        <ele>51.0872</ele>
        <time>2013-10-12T14:44:19Z</time>
      </trkpt>
      <trkpt lat="60.4812053" lon="22.2128627">
        <ele>53.0098</ele>
        <time>2013-10-12T14:44:21Z</time>
      </trkpt>
      <trkpt lat="60.4814746" lon="22.2130662">
        <ele>56.8551</ele>
        <time>2013-10-12T14:44:27Z</time>
      </trkpt>
      <trkpt lat="60.4817045" lon="22.2129772">
        <ele>54.4518</ele>
        <time>2013-10-12T14:44:32Z</time>
      </trkpt>
      <trkpt lat="60.4817382" lon="22.2129084">
        <ele>53.9712</ele>
        <time>2013-10-12T14:44:33Z</time>
      </trkpt>
      <trkpt lat="60.481933" lon="22.2123556">
        <ele>44.358</ele>
        <time>2013-10-12T14:44:39Z</time>
      </trkpt>
      <trkpt lat="60.4820186" lon="22.2122184">
        <ele>44.8386</ele>
        <time>2013-10-12T14:44:41Z</time>
      </trkpt>
      <trkpt lat="60.4822751" lon="22.2119701">
        <ele>42.916</ele>
        <time>2013-10-12T14:44:46Z</time>
      </trkpt>
      <trkpt lat="60.4824035" lon="22.2119234">
        <ele>44.8386</ele>
        <time>2013-10-12T14:44:48Z</time>
      </trkpt>
      <trkpt lat="60.4826562" lon="22.212009">
        <ele>45.7999</ele>
        <time>2013-10-12T14:44:52Z</time>
      </trkpt>
      <trkpt lat="60.4828287" lon="22.2122807">
        <ele>44.8386</ele>
        <time>2013-10-12T14:44:56Z</time>
      </trkpt>
      <trkpt lat="60.4829758" lon="22.2124789">
        <ele>43.8773</ele>
        <time>2013-10-12T14:45:01Z</time>
      </trkpt>
      <trkpt lat="60.483035" lon="22.2125346">
        <ele>43.3966</ele>
        <time>2013-10-12T14:45:03Z</time>
      </trkpt>
      <trkpt lat="60.4832688" lon="22.2126851">
        <ele>43.8773</ele>
        <time>2013-10-12T14:45:09Z</time>
      </trkpt>
      <trkpt lat="60.4834426" lon="22.2127579">
        <ele>43.8773</ele>
        <time>2013-10-12T14:45:14Z</time>
      </trkpt>
      <trkpt lat="60.4837036" lon="22.2127958">
        <ele>45.7999</ele>
        <time>2013-10-12T14:45:21Z</time>
      </trkpt>
      <trkpt lat="60.4838798" lon="22.2128268">
        <ele>46.7612</ele>
        <time>2013-10-12T14:45:26Z</time>
      </trkpt>
      <trkpt lat="60.4839715" lon="22.2129761">
        <ele>45.3192</ele>
        <time>2013-10-12T14:45:28Z</time>
      </trkpt>
      <trkpt lat="60.4840906" lon="22.213388">
        <ele>44.8386</ele>
        <time>2013-10-12T14:45:32Z</time>
      </trkpt>
      <trkpt lat="60.4841347" lon="22.2136193">
        <ele>44.358</ele>
        <time>2013-10-12T14:45:34Z</time>
      </trkpt>
      <trkpt lat="60.4842123" lon="22.2139821">
        <ele>43.8773</ele>
        <time>2013-10-12T14:45:38Z</time>
      </trkpt>
      <trkpt lat="60.4842439" lon="22.2147441">
        <ele>38.5901</ele>
        <time>2013-10-12T14:45:44Z</time>
      </trkpt>
      <trkpt lat="60.4842331" lon="22.2148682">
        <ele>38.5901</ele>
        <time>2013-10-12T14:45:45Z</time>
      </trkpt>
      <trkpt lat="60.4842129" lon="22.2151044">
        <ele>38.1094</ele>
        <time>2013-10-12T14:45:47Z</time>
      </trkpt>
      <trkpt lat="60.4842791" lon="22.2155418">
        <ele>37.1481</ele>
        <time>2013-10-12T14:45:51Z</time>
      </trkpt>
      <trkpt lat="60.4843226" lon="22.2156464">
        <ele>36.6675</ele>
        <time>2013-10-12T14:45:52Z</time>
      </trkpt>
      <trkpt lat="60.4844799" lon="22.2160277">
        <ele>33.7834</ele>
        <time>2013-10-12T14:45:55Z</time>
      </trkpt>
      <trkpt lat="60.4846283" lon="22.2164882">
        <ele>31.8607</ele>
        <time>2013-10-12T14:45:58Z</time>
      </trkpt>
      <trkpt lat="60.4848739" lon="22.2168249">
        <ele>30.8995</ele>
        <time>2013-10-12T14:46:02Z</time>
      </trkpt>
      <trkpt lat="60.4851085" lon="22.2171849">
        <ele>29.4575</ele>
        <time>2013-10-12T14:46:06Z</time>
      </trkpt>
      <trkpt lat="60.4851637" lon="22.2174232">
        <ele>28.9769</ele>
        <time>2013-10-12T14:46:08Z</time>
      </trkpt>
      <trkpt lat="60.4851239" lon="22.2181736">
        <ele>26.0929</ele>
        <time>2013-10-12T14:46:15Z</time>
      </trkpt>
      <trkpt lat="60.4850806" lon="22.2185842">
        <ele>24.1703</ele>
        <time>2013-10-12T14:46:19Z</time>
      </trkpt>
      <trkpt lat="60.4849752" lon="22.2190732">
        <ele>24.1703</ele>
        <time>2013-10-12T14:46:24Z</time>
      </trkpt>
      <trkpt lat="60.4848325" lon="22.2194647">
        <ele>24.1703</ele>
        <time>2013-10-12T14:46:29Z</time>
      </trkpt>
      <trkpt lat="60.4847359" lon="22.2196631">
        <ele>25.1317</ele>
        <time>2013-10-12T14:46:32Z</time>
      </trkpt>
      <trkpt lat="60.4846387" lon="22.2199314">
        <ele>28.0155</ele>
        <time>2013-10-12T14:46:36Z</time>
      </trkpt>
      <trkpt lat="60.4844708" lon="22.2203505">
        <ele>30.4188</ele>
        <time>2013-10-12T14:46:43Z</time>
      </trkpt>
      <trkpt lat="60.4843272" lon="22.2206544">
        <ele>30.4188</ele>
        <time>2013-10-12T14:46:49Z</time>
      </trkpt>
      <trkpt lat="60.4842323" lon="22.2209373">
        <ele>31.8607</ele>
        <time>2013-10-12T14:46:54Z</time>
      </trkpt>
      <trkpt lat="60.4842311" lon="22.2212446">
        <ele>30.4188</ele>
        <time>2013-10-12T14:46:58Z</time>
      </trkpt>
      <trkpt lat="60.484275" lon="22.221775">
        <ele>29.9381</ele>
        <time>2013-10-12T14:47:05Z</time>
      </trkpt>
      <trkpt lat="60.4843241" lon="22.2221387">
        <ele>28.4962</ele>
        <time>2013-10-12T14:47:09Z</time>
      </trkpt>
      <trkpt lat="60.4843013" lon="22.2227437">
        <ele>27.0543</ele>
        <time>2013-10-12T14:47:14Z</time>
      </trkpt>
      <trkpt lat="60.4841826" lon="22.2231409">
        <ele>26.0929</ele>
        <time>2013-10-12T14:47:17Z</time>
      </trkpt>
      <trkpt lat="60.48409" lon="22.2233669">
        <ele>25.6123</ele>
        <time>2013-10-12T14:47:19Z</time>
      </trkpt>
      <trkpt lat="60.4838875" lon="22.2235946">
        <ele>25.1317</ele>
        <time>2013-10-12T14:47:23Z</time>
      </trkpt>
      <trkpt lat="60.4837462" lon="22.2234155">
        <ele>25.1317</ele>
        <time>2013-10-12T14:47:26Z</time>
      </trkpt>
      <trkpt lat="60.4836425" lon="22.2233284">
        <ele>24.651</ele>
        <time>2013-10-12T14:47:28Z</time>
      </trkpt>
      <trkpt lat="60.4833928" lon="22.2232218">
        <ele>22.7283</ele>
        <time>2013-10-12T14:47:33Z</time>
      </trkpt>
      <trkpt lat="60.4833084" lon="22.223229">
        <ele>21.2864</ele>
        <time>2013-10-12T14:47:35Z</time>
      </trkpt>
      <trkpt lat="60.483081" lon="22.2231963">
        <ele>15.5184</ele>
        <time>2013-10-12T14:47:40Z</time>
      </trkpt>
      <trkpt lat="60.4828256" lon="22.2231621">
        <ele>11.6732</ele>
        <time>2013-10-12T14:47:45Z</time>
      </trkpt>
      <trkpt lat="60.4826769" lon="22.2231182">
        <ele>6.86646</ele>
        <time>2013-10-12T14:47:48Z</time>
      </trkpt>
      <trkpt lat="60.4825925" lon="22.2230875">
        <ele>4.94385</ele>
        <time>2013-10-12T14:47:50Z</time>
      </trkpt>
      <trkpt lat="60.4822986" lon="22.2229551">
        <ele>0.137451</ele>
        <time>2013-10-12T14:47:56Z</time>
      </trkpt>
      <trkpt lat="60.4822491" lon="22.2229455">
        <ele>0.137451</ele>
        <time>2013-10-12T14:47:57Z</time>
      </trkpt>
      <trkpt lat="60.482017" lon="22.2229067">
        <ele>0</ele>
        <time>2013-10-12T14:48:02Z</time>
      </trkpt>
      <trkpt lat="60.4818826" lon="22.2228717">
        <ele>0</ele>
        <time>2013-10-12T14:48:05Z</time>
      </trkpt>
      <trkpt lat="60.4817938" lon="22.2228538">
        <ele>0</ele>
        <time>2013-10-12T14:48:07Z</time>
      </trkpt>
      <trkpt lat="60.4817083" lon="22.2228474">
        <ele>0</ele>
        <time>2013-10-12T14:48:09Z</time>
      </trkpt>
      <trkpt lat="60.4814797" lon="22.2228385">
        <ele>0</ele>
        <time>2013-10-12T14:48:14Z</time>
      </trkpt>
      <trkpt lat="60.4813928" lon="22.222858">
        <ele>0</ele>
        <time>2013-10-12T14:48:16Z</time>
      </trkpt>
      <trkpt lat="60.4811923" lon="22.2228116">
        <ele>0</ele>
        <time>2013-10-12T14:48:20Z</time>
      </trkpt>
      <trkpt lat="60.4808788" lon="22.2227661">
        <ele>0</ele>
        <time>2013-10-12T14:48:27Z</time>
      </trkpt>
      <trkpt lat="60.4807416" lon="22.2228395">
        <ele>0</ele>
        <time>2013-10-12T14:48:30Z</time>
      </trkpt>
      <trkpt lat="60.4807472" lon="22.2230743">
        <ele>4.46326</ele>
        <time>2013-10-12T14:48:33Z</time>
      </trkpt>
      <trkpt lat="60.4807824" lon="22.2231538">
        <ele>5.42456</ele>
        <time>2013-10-12T14:48:34Z</time>
      </trkpt>
      <trkpt lat="60.4809059" lon="22.2238342">
        <ele>10.2312</ele>
        <time>2013-10-12T14:48:40Z</time>
      </trkpt>
      <trkpt lat="60.4809582" lon="22.2243267">
        <ele>15.999</ele>
        <time>2013-10-12T14:48:45Z</time>
      </trkpt>
      <trkpt lat="60.4809431" lon="22.2245189">
        <ele>15.999</ele>
        <time>2013-10-12T14:48:47Z</time>
      </trkpt>
      <trkpt lat="60.4809355" lon="22.224736">
        <ele>15.999</ele>
        <time>2013-10-12T14:48:49Z</time>
      </trkpt>
      <trkpt lat="60.4809572" lon="22.2251987">
        <ele>15.0377</ele>
        <time>2013-10-12T14:48:53Z</time>
      </trkpt>
      <trkpt lat="60.480867" lon="22.2258084">
        <ele>16.9604</ele>
        <time>2013-10-12T14:48:58Z</time>
      </trkpt>
      <trkpt lat="60.4806987" lon="22.2263941">
        <ele>17.9218</ele>
        <time>2013-10-12T14:49:03Z</time>
      </trkpt>
      <trkpt lat="60.4803842" lon="22.2273816">
        <ele>17.9218</ele>
        <time>2013-10-12T14:49:12Z</time>
      </trkpt>
      <trkpt lat="60.4802542" lon="22.2279158">
        <ele>18.4023</ele>
        <time>2013-10-12T14:49:17Z</time>
      </trkpt>
      <trkpt lat="60.4802334" lon="22.2280129">
        <ele>18.4023</ele>
        <time>2013-10-12T14:49:18Z</time>
      </trkpt>
      <trkpt lat="60.4801887" lon="22.2283003">
        <ele>17.9218</ele>
        <time>2013-10-12T14:49:21Z</time>
      </trkpt>
      <trkpt lat="60.4800128" lon="22.2287221">
        <ele>18.4023</ele>
        <time>2013-10-12T14:49:26Z</time>
      </trkpt>
      <trkpt lat="60.4799414" lon="22.2288833">
        <ele>18.4023</ele>
        <time>2013-10-12T14:49:28Z</time>
      </trkpt>
      <trkpt lat="60.4798292" lon="22.2291199">
        <ele>18.4023</ele>
        <time>2013-10-12T14:49:32Z</time>
      </trkpt>
      <trkpt lat="60.4799036" lon="22.2292619">
        <ele>16.4797</ele>
        <time>2013-10-12T14:49:35Z</time>
      </trkpt>
      <trkpt lat="60.4803044" lon="22.2296752">
        <ele>15.0377</ele>
        <time>2013-10-12T14:49:45Z</time>
      </trkpt>
      <trkpt lat="60.4805858" lon="22.229861">
        <ele>15.0377</ele>
        <time>2013-10-12T14:49:51Z</time>
      </trkpt>
      <trkpt lat="60.4807567" lon="22.2299956">
        <ele>16.9604</ele>
        <time>2013-10-12T14:49:55Z</time>
      </trkpt>
      <trkpt lat="60.4808751" lon="22.2301588">
        <ele>18.8831</ele>
        <time>2013-10-12T14:49:59Z</time>
      </trkpt>
      <trkpt lat="60.4810696" lon="22.2303257">
        <ele>20.8057</ele>
        <time>2013-10-12T14:50:05Z</time>
      </trkpt>
      <trkpt lat="60.4813617" lon="22.2303522">
        <ele>19.8444</ele>
        <time>2013-10-12T14:50:10Z</time>
      </trkpt>
      <trkpt lat="60.4818705" lon="22.2304786">
        <ele>20.8057</ele>
        <time>2013-10-12T14:50:19Z</time>
      </trkpt>
      <trkpt lat="60.4821294" lon="22.2306331">
        <ele>20.8057</ele>
        <time>2013-10-12T14:50:24Z</time>
      </trkpt>
      <trkpt lat="60.4823155" lon="22.2305486">
        <ele>20.8057</ele>
        <time>2013-10-12T14:50:28Z</time>
      </trkpt>
      <trkpt lat="60.4824281" lon="22.2302844">
        <ele>19.3638</ele>
        <time>2013-10-12T14:50:32Z</time>
      </trkpt>
      <trkpt lat="60.4824434" lon="22.2302063">
        <ele>19.3638</ele>
        <time>2013-10-12T14:50:33Z</time>
      </trkpt>
      <trkpt lat="60.4825273" lon="22.2296659">
        <ele>23.209</ele>
        <time>2013-10-12T14:50:41Z</time>
      </trkpt>
      <trkpt lat="60.4825884" lon="22.2295135">
        <ele>23.209</ele>
        <time>2013-10-12T14:50:44Z</time>
      </trkpt>
      <trkpt lat="60.4827861" lon="22.2294845">
        <ele>23.209</ele>
        <time>2013-10-12T14:50:49Z</time>
      </trkpt>
      <trkpt lat="60.482958" lon="22.2295385">
        <ele>25.1317</ele>
        <time>2013-10-12T14:50:54Z</time>
      </trkpt>
      <trkpt lat="60.483157" lon="22.2295089">
        <ele>25.1317</ele>
        <time>2013-10-12T14:50:59Z</time>
      </trkpt>
      <trkpt lat="60.4834271" lon="22.2294188">
        <ele>26.5736</ele>
        <time>2013-10-12T14:51:05Z</time>
      </trkpt>
      <trkpt lat="60.4834783" lon="22.2293859">
        <ele>26.5736</ele>
        <time>2013-10-12T14:51:06Z</time>
      </trkpt>
      <trkpt lat="60.4836591" lon="22.2291477">
        <ele>20.8057</ele>
        <time>2013-10-12T14:51:10Z</time>
      </trkpt>
      <trkpt lat="60.4837612" lon="22.2289339">
        <ele>16.9604</ele>
        <time>2013-10-12T14:51:13Z</time>
      </trkpt>
      <trkpt lat="60.4838483" lon="22.2285511">
        <ele>15.0377</ele>
        <time>2013-10-12T14:51:18Z</time>
      </trkpt>
      <trkpt lat="60.4838618" lon="22.2279735">
        <ele>12.6344</ele>
        <time>2013-10-12T14:51:25Z</time>
      </trkpt>
      <trkpt lat="60.4839404" lon="22.2277511">
        <ele>14.557</ele>
        <time>2013-10-12T14:51:29Z</time>
      </trkpt>
      <trkpt lat="60.484102" lon="22.2277881">
        <ele>16.4797</ele>
        <time>2013-10-12T14:51:33Z</time>
      </trkpt>
      <trkpt lat="60.4842019" lon="22.2276955">
        <ele>17.9218</ele>
        <time>2013-10-12T14:51:36Z</time>
      </trkpt>
      <trkpt lat="60.4842252" lon="22.2275646">
        <ele>19.8444</ele>
        <time>2013-10-12T14:51:38Z</time>
      </trkpt>
      <trkpt lat="60.4842693" lon="22.2269758">
        <ele>23.6896</ele>
        <time>2013-10-12T14:51:45Z</time>
      </trkpt>
      <trkpt lat="60.4842895" lon="22.226798">
        <ele>24.651</ele>
        <time>2013-10-12T14:51:47Z</time>
      </trkpt>
      <trkpt lat="60.4843667" lon="22.2265059">
        <ele>26.5736</ele>
        <time>2013-10-12T14:51:51Z</time>
      </trkpt>
      <trkpt lat="60.4845007" lon="22.2262864">
        <ele>26.0929</ele>
        <time>2013-10-12T14:51:55Z</time>
      </trkpt>
      <trkpt lat="60.4846764" lon="22.2261718">
        <ele>26.0929</ele>
        <time>2013-10-12T14:51:59Z</time>
      </trkpt>
      <trkpt lat="60.4849948" lon="22.2258814">
        <ele>25.1317</ele>
        <time>2013-10-12T14:52:06Z</time>
      </trkpt>
      <trkpt lat="60.4850712" lon="22.2257761">
        <ele>24.651</ele>
        <time>2013-10-12T14:52:08Z</time>
      </trkpt>
      <trkpt lat="60.4851516" lon="22.2256763">
        <ele>24.1703</ele>
        <time>2013-10-12T14:52:10Z</time>
      </trkpt>
      <trkpt lat="60.485541" lon="22.2252756">
        <ele>22.2476</ele>
        <time>2013-10-12T14:52:19Z</time>
      </trkpt>
      <trkpt lat="60.4858507" lon="22.2249215">
        <ele>20.8057</ele>
        <time>2013-10-12T14:52:26Z</time>
      </trkpt>
      <trkpt lat="60.4861436" lon="22.2248312">
        <ele>21.2864</ele>
        <time>2013-10-12T14:52:32Z</time>
      </trkpt>
      <trkpt lat="60.4865335" lon="22.2247865">
        <ele>21.2864</ele>
        <time>2013-10-12T14:52:40Z</time>
      </trkpt>
      <trkpt lat="60.4869915" lon="22.2247252">
        <ele>21.767</ele>
        <time>2013-10-12T14:52:49Z</time>
      </trkpt>
      <trkpt lat="60.4871555" lon="22.2248738">
        <ele>22.2476</ele>
        <time>2013-10-12T14:52:53Z</time>
      </trkpt>
      <trkpt lat="60.4871848" lon="22.2249445">
        <ele>22.7283</ele>
        <time>2013-10-12T14:52:54Z</time>
      </trkpt>
      <trkpt lat="60.4874607" lon="22.2254949">
        <ele>22.7283</ele>
        <time>2013-10-12T14:53:02Z</time>
      </trkpt>
      <trkpt lat="60.4875914" lon="22.2259388">
        <ele>22.7283</ele>
        <time>2013-10-12T14:53:07Z</time>
      </trkpt>
      <trkpt lat="60.4877201" lon="22.226258">
        <ele>23.6896</ele>
        <time>2013-10-12T14:53:11Z</time>
      </trkpt>
      <trkpt lat="60.4878503" lon="22.2266534">
        <ele>24.1703</ele>
        <time>2013-10-12T14:53:16Z</time>
      </trkpt>
      <trkpt lat="60.4879021" lon="22.2267965">
        <ele>24.1703</ele>
        <time>2013-10-12T14:53:18Z</time>
      </trkpt>
      <trkpt lat="60.4880772" lon="22.2272188">
        <ele>22.2476</ele>
        <time>2013-10-12T14:53:24Z</time>
      </trkpt>
      <trkpt lat="60.4881938" lon="22.2277592">
        <ele>20.8057</ele>
        <time>2013-10-12T14:53:28Z</time>
      </trkpt>
      <trkpt lat="60.488355" lon="22.2282381">
        <ele>19.8444</ele>
        <time>2013-10-12T14:53:32Z</time>
      </trkpt>
      <trkpt lat="60.4884223" lon="22.2284735">
        <ele>20.8057</ele>
        <time>2013-10-12T14:53:34Z</time>
      </trkpt>
      <trkpt lat="60.4885627" lon="22.2291775">
        <ele>21.767</ele>
        <time>2013-10-12T14:53:41Z</time>
      </trkpt>
      <trkpt lat="60.4885311" lon="22.2295596">
        <ele>22.2476</ele>
        <time>2013-10-12T14:53:45Z</time>
      </trkpt>
      <trkpt lat="60.4884973" lon="22.2299176">
        <ele>21.2864</ele>
        <time>2013-10-12T14:53:49Z</time>
      </trkpt>
      <trkpt lat="60.4885668" lon="22.2301513">
        <ele>20.8057</ele>
        <time>2013-10-12T14:53:52Z</time>
      </trkpt>
      <trkpt lat="60.4886658" lon="22.2304447">
        <ele>21.2864</ele>
        <time>2013-10-12T14:53:56Z</time>
      </trkpt>
      <trkpt lat="60.4887285" lon="22.23058">
        <ele>21.2864</ele>
        <time>2013-10-12T14:53:58Z</time>
      </trkpt>
      <trkpt lat="60.4888338" lon="22.2307519">
        <ele>21.767</ele>
        <time>2013-10-12T14:54:01Z</time>
      </trkpt>
      <trkpt lat="60.4891775" lon="22.2311759">
        <ele>21.2864</ele>
        <time>2013-10-12T14:54:10Z</time>
      </trkpt>
      <trkpt lat="60.4892514" lon="22.231265">
        <ele>21.2864</ele>
        <time>2013-10-12T14:54:12Z</time>
      </trkpt>
      <trkpt lat="60.4893686" lon="22.2316144">
        <ele>21.767</ele>
        <time>2013-10-12T14:54:17Z</time>
      </trkpt>
      <trkpt lat="60.489379" lon="22.2316953">
        <ele>21.2864</ele>
        <time>2013-10-12T14:54:18Z</time>
      </trkpt>
      <trkpt lat="60.4893984" lon="22.2318653">
        <ele>21.767</ele>
        <time>2013-10-12T14:54:20Z</time>
      </trkpt>
      <trkpt lat="60.4894539" lon="22.232575">
        <ele>18.4023</ele>
        <time>2013-10-12T14:54:27Z</time>
      </trkpt>
      <trkpt lat="60.4894949" lon="22.2330237">
        <ele>17.4412</ele>
        <time>2013-10-12T14:54:30Z</time>
      </trkpt>
      <trkpt lat="60.4894744" lon="22.2334244">
        <ele>22.7283</ele>
        <time>2013-10-12T14:54:35Z</time>
      </trkpt>
      <trkpt lat="60.489463" lon="22.2335933">
        <ele>24.651</ele>
        <time>2013-10-12T14:54:38Z</time>
      </trkpt>
      <trkpt lat="60.4895049" lon="22.2338329">
        <ele>26.0929</ele>
        <time>2013-10-12T14:54:42Z</time>
      </trkpt>
      <trkpt lat="60.4896473" lon="22.2343329">
        <ele>26.0929</ele>
        <time>2013-10-12T14:54:49Z</time>
      </trkpt>
      <trkpt lat="60.4897333" lon="22.2346739">
        <ele>26.0929</ele>
        <time>2013-10-12T14:54:53Z</time>
      </trkpt>
      <trkpt lat="60.4897809" lon="22.2350913">
        <ele>25.6123</ele>
        <time>2013-10-12T14:54:57Z</time>
      </trkpt>
      <trkpt lat="60.4899359" lon="22.2356619">
        <ele>24.1703</ele>
        <time>2013-10-12T14:55:03Z</time>
      </trkpt>
      <trkpt lat="60.4899876" lon="22.2358456">
        <ele>23.6896</ele>
        <time>2013-10-12T14:55:05Z</time>
      </trkpt>
      <trkpt lat="60.4900696" lon="22.2363625">
        <ele>23.209</ele>
        <time>2013-10-12T14:55:10Z</time>
      </trkpt>
      <trkpt lat="60.490256" lon="22.2371774">
        <ele>21.2864</ele>
        <time>2013-10-12T14:55:18Z</time>
      </trkpt>
      <trkpt lat="60.4903509" lon="22.2378311">
        <ele>21.767</ele>
        <time>2013-10-12T14:55:24Z</time>
      </trkpt>
      <trkpt lat="60.4904389" lon="22.2385874">
        <ele>21.2864</ele>
        <time>2013-10-12T14:55:31Z</time>
      </trkpt>
      <trkpt lat="60.4906199" lon="22.239506">
        <ele>21.767</ele>
        <time>2013-10-12T14:55:40Z</time>
      </trkpt>
      <trkpt lat="60.4908461" lon="22.2403291">
        <ele>21.767</ele>
        <time>2013-10-12T14:55:49Z</time>
      </trkpt>
      <trkpt lat="60.4910957" lon="22.2410652">
        <ele>21.767</ele>
        <time>2013-10-12T14:55:58Z</time>
      </trkpt>
      <trkpt lat="60.4913636" lon="22.2416999">
        <ele>21.2864</ele>
        <time>2013-10-12T14:56:06Z</time>
      </trkpt>
      <trkpt lat="60.4914394" lon="22.2418873">
        <ele>20.325</ele>
        <time>2013-10-12T14:56:08Z</time>
      </trkpt>
      <trkpt lat="60.4915738" lon="22.242238">
        <ele>19.3638</ele>
        <time>2013-10-12T14:56:12Z</time>
      </trkpt>
      <trkpt lat="60.4916049" lon="22.2425582">
        <ele>22.7283</ele>
        <time>2013-10-12T14:56:16Z</time>
      </trkpt>
      <trkpt lat="60.4915784" lon="22.242591">
        <ele>22.7283</ele>
        <time>2013-10-12T14:56:17Z</time>
      </trkpt>
      <trkpt lat="60.4913359" lon="22.2429253">
        <ele>24.651</ele>
        <time>2013-10-12T14:56:26Z</time>
      </trkpt>
      <trkpt lat="60.4912783" lon="22.2429838">
        <ele>25.1317</ele>
        <time>2013-10-12T14:56:28Z</time>
      </trkpt>
      <trkpt lat="60.4911873" lon="22.2428618">
        <ele>26.0929</ele>
        <time>2013-10-12T14:56:32Z</time>
      </trkpt>
      <trkpt lat="60.490994" lon="22.242495">
        <ele>26.5736</ele>
        <time>2013-10-12T14:56:38Z</time>
      </trkpt>
      <trkpt lat="60.4909571" lon="22.2424724">
        <ele>26.5736</ele>
        <time>2013-10-12T14:56:39Z</time>
      </trkpt>
      <trkpt lat="60.4908629" lon="22.2426964">
        <ele>27.5349</ele>
        <time>2013-10-12T14:56:43Z</time>
      </trkpt>
      <trkpt lat="60.4908482" lon="22.2427812">
        <ele>27.5349</ele>
        <time>2013-10-12T14:56:44Z</time>
      </trkpt>
      <trkpt lat="60.4907632" lon="22.2430922">
        <ele>27.5349</ele>
        <time>2013-10-12T14:56:48Z</time>
      </trkpt>
      <trkpt lat="60.4905574" lon="22.2434339">
        <ele>28.4962</ele>
        <time>2013-10-12T14:56:54Z</time>
      </trkpt>
      <trkpt lat="60.4904296" lon="22.2435549">
        <ele>28.9769</ele>
        <time>2013-10-12T14:56:57Z</time>
      </trkpt>
      <trkpt lat="60.4900629" lon="22.2436801">
        <ele>29.4575</ele>
        <time>2013-10-12T14:57:04Z</time>
      </trkpt>
      <trkpt lat="60.4896379" lon="22.2437563">
        <ele>32.8223</ele>
        <time>2013-10-12T14:57:12Z</time>
      </trkpt>
      <trkpt lat="60.4892154" lon="22.243712">
        <ele>34.2642</ele>
        <time>2013-10-12T14:57:20Z</time>
      </trkpt>
      <trkpt lat="60.4889401" lon="22.2436356">
        <ele>34.7449</ele>
        <time>2013-10-12T14:57:26Z</time>
      </trkpt>
      <trkpt lat="60.4888941" lon="22.2436313">
        <ele>34.7449</ele>
        <time>2013-10-12T14:57:27Z</time>
      </trkpt>
      <trkpt lat="60.48849" lon="22.2437458">
        <ele>34.2642</ele>
        <time>2013-10-12T14:57:36Z</time>
      </trkpt>
      <trkpt lat="60.4881705" lon="22.2438869">
        <ele>34.7449</ele>
        <time>2013-10-12T14:57:43Z</time>
      </trkpt>
      <trkpt lat="60.4877784" lon="22.2440417">
        <ele>33.7834</ele>
        <time>2013-10-12T14:57:51Z</time>
      </trkpt>
      <trkpt lat="60.487394" lon="22.2441976">
        <ele>35.2255</ele>
        <time>2013-10-12T14:57:59Z</time>
      </trkpt>
      <trkpt lat="60.4872395" lon="22.2443524">
        <ele>36.1868</ele>
        <time>2013-10-12T14:58:03Z</time>
      </trkpt>
      <trkpt lat="60.4871742" lon="22.2444616">
        <ele>38.1094</ele>
        <time>2013-10-12T14:58:05Z</time>
      </trkpt>
      <trkpt lat="60.4868519" lon="22.2447941">
        <ele>43.3966</ele>
        <time>2013-10-12T14:58:14Z</time>
      </trkpt>
      <trkpt lat="60.4865366" lon="22.2451">
        <ele>45.7999</ele>
        <time>2013-10-12T14:58:24Z</time>
      </trkpt>
      <trkpt lat="60.486447" lon="22.245158">
        <ele>46.2806</ele>
        <time>2013-10-12T14:58:28Z</time>
      </trkpt>
      <trkpt lat="60.4864694" lon="22.2451279">
        <ele>47.7225</ele>
        <time>2013-10-12T14:59:03Z</time>
      </trkpt>
      <trkpt lat="60.4864697" lon="22.2451277">
        <ele>48.2034</ele>
        <time>2013-10-12T14:59:04Z</time>
      </trkpt>
      <trkpt lat="60.4864693" lon="22.2451316">
        <ele>47.7225</ele>
        <time>2013-10-12T14:59:05Z</time>
      </trkpt>
      <trkpt lat="60.4864165" lon="22.2451963">
        <ele>48.684</ele>
        <time>2013-10-12T14:59:09Z</time>
      </trkpt>
      <trkpt lat="60.4862201" lon="22.2453591">
        <ele>48.2034</ele>
        <time>2013-10-12T14:59:13Z</time>
      </trkpt>
      <trkpt lat="60.4859469" lon="22.2455683">
        <ele>47.7225</ele>
        <time>2013-10-12T14:59:18Z</time>
      </trkpt>
      <trkpt lat="60.4858851" lon="22.2456128">
        <ele>47.7225</ele>
        <time>2013-10-12T14:59:19Z</time>
      </trkpt>
      <trkpt lat="60.4855716" lon="22.2456756">
        <ele>46.2806</ele>
        <time>2013-10-12T14:59:24Z</time>
      </trkpt>
      <trkpt lat="60.4853974" lon="22.2456686">
        <ele>45.3192</ele>
        <time>2013-10-12T14:59:27Z</time>
      </trkpt>
      <trkpt lat="60.4851826" lon="22.2458681">
        <ele>43.8773</ele>
        <time>2013-10-12T14:59:31Z</time>
      </trkpt>
      <trkpt lat="60.4851395" lon="22.2461929">
        <ele>43.3966</ele>
        <time>2013-10-12T14:59:34Z</time>
      </trkpt>
      <trkpt lat="60.4852115" lon="22.2464069">
        <ele>43.3966</ele>
        <time>2013-10-12T14:59:37Z</time>
      </trkpt>
      <trkpt lat="60.4852062" lon="22.246624">
        <ele>42.4354</ele>
        <time>2013-10-12T14:59:40Z</time>
      </trkpt>
      <trkpt lat="60.4851485" lon="22.2468421">
        <ele>41.474</ele>
        <time>2013-10-12T14:59:42Z</time>
      </trkpt>
      <trkpt lat="60.4850676" lon="22.2477164">
        <ele>39.0707</ele>
        <time>2013-10-12T14:59:48Z</time>
      </trkpt>
      <trkpt lat="60.4850742" lon="22.2485907">
        <ele>36.6675</ele>
        <time>2013-10-12T14:59:54Z</time>
      </trkpt>
      <trkpt lat="60.4850712" lon="22.2488245">
        <ele>36.1868</ele>
        <time>2013-10-12T14:59:56Z</time>
      </trkpt>
      <trkpt lat="60.4850114" lon="22.2490978">
        <ele>34.7449</ele>
        <time>2013-10-12T15:00:00Z</time>
      </trkpt>
      <trkpt lat="60.4848978" lon="22.2490669">
        <ele>31.3801</ele>
        <time>2013-10-12T15:00:03Z</time>
      </trkpt>
      <trkpt lat="60.4848429" lon="22.2490146">
        <ele>29.4575</ele>
        <time>2013-10-12T15:00:04Z</time>
      </trkpt>
      <trkpt lat="60.4845331" lon="22.2488404">
        <ele>25.6123</ele>
        <time>2013-10-12T15:00:09Z</time>
      </trkpt>
      <trkpt lat="60.4842836" lon="22.2489675">
        <ele>26.5736</ele>
        <time>2013-10-12T15:00:14Z</time>
      </trkpt>
      <trkpt lat="60.4841234" lon="22.2490323">
        <ele>27.0543</ele>
        <time>2013-10-12T15:00:17Z</time>
      </trkpt>
      <trkpt lat="60.483893" lon="22.2490087">
        <ele>26.0929</ele>
        <time>2013-10-12T15:00:21Z</time>
      </trkpt>
      <trkpt lat="60.4837715" lon="22.2489406">
        <ele>25.6123</ele>
        <time>2013-10-12T15:00:23Z</time>
      </trkpt>
      <trkpt lat="60.4834694" lon="22.2489809">
        <ele>23.209</ele>
        <time>2013-10-12T15:00:28Z</time>
      </trkpt>
      <trkpt lat="60.4834193" lon="22.2490457">
        <ele>22.7283</ele>
        <time>2013-10-12T15:00:29Z</time>
      </trkpt>
      <trkpt lat="60.4832297" lon="22.2493362">
        <ele>19.8444</ele>
        <time>2013-10-12T15:00:33Z</time>
      </trkpt>
      <trkpt lat="60.4830785" lon="22.24956">
        <ele>20.325</ele>
        <time>2013-10-12T15:00:36Z</time>
      </trkpt>
      <trkpt lat="60.482901" lon="22.2498878">
        <ele>20.8057</ele>
        <time>2013-10-12T15:00:40Z</time>
      </trkpt>
      <trkpt lat="60.4828" lon="22.2504282">
        <ele>20.325</ele>
        <time>2013-10-12T15:00:44Z</time>
      </trkpt>
      <trkpt lat="60.4827194" lon="22.2508608">
        <ele>19.8444</ele>
        <time>2013-10-12T15:00:47Z</time>
      </trkpt>
      <trkpt lat="60.4826012" lon="22.2511375">
        <ele>20.8057</ele>
        <time>2013-10-12T15:00:50Z</time>
      </trkpt>
      <trkpt lat="60.4824817" lon="22.251387">
        <ele>20.325</ele>
        <time>2013-10-12T15:00:53Z</time>
      </trkpt>
      <trkpt lat="60.4822258" lon="22.2518805">
        <ele>21.2864</ele>
        <time>2013-10-12T15:00:58Z</time>
      </trkpt>
      <trkpt lat="60.4818039" lon="22.2523205">
        <ele>28.4962</ele>
        <time>2013-10-12T15:01:05Z</time>
      </trkpt>
      <trkpt lat="60.4817548" lon="22.2523758">
        <ele>28.4962</ele>
        <time>2013-10-12T15:01:06Z</time>
      </trkpt>
      <trkpt lat="60.4815938" lon="22.2527836">
        <ele>29.4575</ele>
        <time>2013-10-12T15:01:11Z</time>
      </trkpt>
      <trkpt lat="60.4814124" lon="22.2532519">
        <ele>32.3416</ele>
        <time>2013-10-12T15:01:17Z</time>
      </trkpt>
      <trkpt lat="60.4813865" lon="22.2533275">
        <ele>33.3029</ele>
        <time>2013-10-12T15:01:18Z</time>
      </trkpt>
      <trkpt lat="60.4813636" lon="22.2537621">
        <ele>34.2642</ele>
        <time>2013-10-12T15:01:22Z</time>
      </trkpt>
      <trkpt lat="60.4814135" lon="22.2539755">
        <ele>33.7834</ele>
        <time>2013-10-12T15:01:24Z</time>
      </trkpt>
      <trkpt lat="60.4814968" lon="22.2542492">
        <ele>31.3801</ele>
        <time>2013-10-12T15:01:27Z</time>
      </trkpt>
      <trkpt lat="60.4814828" lon="22.2545836">
        <ele>28.4962</ele>
        <time>2013-10-12T15:01:31Z</time>
      </trkpt>
      <trkpt lat="60.4813001" lon="22.2547814">
        <ele>24.651</ele>
        <time>2013-10-12T15:01:35Z</time>
      </trkpt>
      <trkpt lat="60.4811842" lon="22.2549182">
        <ele>24.1703</ele>
        <time>2013-10-12T15:01:37Z</time>
      </trkpt>
      <trkpt lat="60.4809509" lon="22.255152">
        <ele>24.651</ele>
        <time>2013-10-12T15:01:41Z</time>
      </trkpt>
      <trkpt lat="60.4807912" lon="22.2554031">
        <ele>26.5736</ele>
        <time>2013-10-12T15:01:46Z</time>
      </trkpt>
      <trkpt lat="60.4807718" lon="22.2554545">
        <ele>26.5736</ele>
        <time>2013-10-12T15:01:47Z</time>
      </trkpt>
      <trkpt lat="60.4807577" lon="22.2555594">
        <ele>28.4962</ele>
        <time>2013-10-12T15:01:49Z</time>
      </trkpt>
      <trkpt lat="60.4808171" lon="22.2559294">
        <ele>28.4962</ele>
        <time>2013-10-12T15:01:56Z</time>
      </trkpt>
      <trkpt lat="60.4810022" lon="22.2563132">
        <ele>28.4962</ele>
        <time>2013-10-12T15:02:03Z</time>
      </trkpt>
      <trkpt lat="60.4811104" lon="22.2566043">
        <ele>29.4575</ele>
        <time>2013-10-12T15:02:09Z</time>
      </trkpt>
      <trkpt lat="60.4811633" lon="22.2569158">
        <ele>28.4962</ele>
        <time>2013-10-12T15:02:15Z</time>
      </trkpt>
      <trkpt lat="60.4811662" lon="22.2573093">
        <ele>32.3416</ele>
        <time>2013-10-12T15:02:20Z</time>
      </trkpt>
      <trkpt lat="60.4811358" lon="22.2575953">
        <ele>35.7061</ele>
        <time>2013-10-12T15:02:25Z</time>
      </trkpt>
      <trkpt lat="60.4810887" lon="22.2578622">
        <ele>38.5901</ele>
        <time>2013-10-12T15:02:29Z</time>
      </trkpt>
      <trkpt lat="60.4810286" lon="22.2582231">
        <ele>38.1094</ele>
        <time>2013-10-12T15:02:32Z</time>
      </trkpt>
      <trkpt lat="60.4810924" lon="22.2591804">
        <ele>35.2255</ele>
        <time>2013-10-12T15:02:38Z</time>
      </trkpt>
      <trkpt lat="60.481154" lon="22.2600072">
        <ele>32.8223</ele>
        <time>2013-10-12T15:02:44Z</time>
      </trkpt>
      <trkpt lat="60.4812359" lon="22.2606997">
        <ele>29.4575</ele>
        <time>2013-10-12T15:02:50Z</time>
      </trkpt>
      <trkpt lat="60.4813685" lon="22.2613286">
        <ele>23.6896</ele>
        <time>2013-10-12T15:02:56Z</time>
      </trkpt>
      <trkpt lat="60.481355" lon="22.2616574">
        <ele>19.3638</ele>
        <time>2013-10-12T15:03:00Z</time>
      </trkpt>
      <trkpt lat="60.4812519" lon="22.2616536">
        <ele>16.9604</ele>
        <time>2013-10-12T15:03:02Z</time>
      </trkpt>
      <trkpt lat="60.480851" lon="22.2615244">
        <ele>8.78918</ele>
        <time>2013-10-12T15:03:08Z</time>
      </trkpt>
      <trkpt lat="60.4804878" lon="22.2613265">
        <ele>3.98267</ele>
        <time>2013-10-12T15:03:13Z</time>
      </trkpt>
      <trkpt lat="60.4801064" lon="22.260993">
        <ele>5.42456</ele>
        <time>2013-10-12T15:03:18Z</time>
      </trkpt>
      <trkpt lat="60.4800294" lon="22.2609372">
        <ele>4.46326</ele>
        <time>2013-10-12T15:03:19Z</time>
      </trkpt>
      <trkpt lat="60.4796102" lon="22.2608559">
        <ele>4.46326</ele>
        <time>2013-10-12T15:03:24Z</time>
      </trkpt>
      <trkpt lat="60.4794036" lon="22.2608929">
        <ele>3.50195</ele>
        <time>2013-10-12T15:03:27Z</time>
      </trkpt>
      <trkpt lat="60.4792234" lon="22.2608514">
        <ele>4.46326</ele>
        <time>2013-10-12T15:03:30Z</time>
      </trkpt>
      <trkpt lat="60.4790595" lon="22.2610423">
        <ele>12.1538</ele>
        <time>2013-10-12T15:03:34Z</time>
      </trkpt>
      <trkpt lat="60.4790421" lon="22.2612469">
        <ele>14.557</ele>
        <time>2013-10-12T15:03:36Z</time>
      </trkpt>
      <trkpt lat="60.4790367" lon="22.2615424">
        <ele>16.4797</ele>
        <time>2013-10-12T15:03:39Z</time>
      </trkpt>
      <trkpt lat="60.4789759" lon="22.261955">
        <ele>18.8831</ele>
        <time>2013-10-12T15:03:43Z</time>
      </trkpt>
      <trkpt lat="60.4788375" lon="22.2624849">
        <ele>21.2864</ele>
        <time>2013-10-12T15:03:48Z</time>
      </trkpt>
      <trkpt lat="60.4786458" lon="22.2633309">
        <ele>22.7283</ele>
        <time>2013-10-12T15:03:55Z</time>
      </trkpt>
      <trkpt lat="60.4784039" lon="22.264519">
        <ele>23.209</ele>
        <time>2013-10-12T15:04:04Z</time>
      </trkpt>
      <trkpt lat="60.4781105" lon="22.2659105">
        <ele>23.209</ele>
        <time>2013-10-12T15:04:15Z</time>
      </trkpt>
      <trkpt lat="60.4780651" lon="22.2661466">
        <ele>24.1703</ele>
        <time>2013-10-12T15:04:17Z</time>
      </trkpt>
      <trkpt lat="60.4780784" lon="22.2664549">
        <ele>24.1703</ele>
        <time>2013-10-12T15:04:21Z</time>
      </trkpt>
      <trkpt lat="60.4781097" lon="22.2665145">
        <ele>24.1703</ele>
        <time>2013-10-12T15:04:23Z</time>
      </trkpt>
    </trkseg>
  </trk>
</gpx>